createdAt,value
2019-02-20T00:01:47.616Z,27.50
2019-02-20T00:04:16.995Z,28.30
2019-02-20T00:06:46.367Z,20.77
2019-02-20T00:09:15.769Z,23.40
2019-02-20T00:11:45.488Z,28.67
2019-02-20T00:14:14.814Z,23.67
2019-02-20T00:16:44.220Z,30.00
2019-02-20T00:19:13.616Z,28.30
2019-02-20T00:21:43.020Z,22.97
2019-02-20T00:24:12.407Z,21.73
2019-02-20T00:26:43.333Z,24.90
2019-02-20T00:29:12.756Z,23.23
2019-02-20T00:31:42.524Z,28.13
2019-02-20T00:34:12.080Z,26.60
2019-02-20T00:36:41.411Z,27.47
2019-02-20T00:39:11.168Z,25.20
2019-02-20T00:41:40.602Z,22.13
2019-02-20T00:44:29.278Z,22.17
2019-02-20T00:47:17.550Z,26.17
2019-02-20T00:49:49.214Z,21.77
2019-02-20T00:52:35.914Z,27.40
2019-02-20T00:55:06.049Z,22.40
2019-02-20T00:57:35.468Z,24.07
2019-02-20T01:00:05.774Z,26.17
2019-02-20T01:02:35.132Z,23.27
2019-02-20T01:05:04.874Z,22.20
2019-02-20T01:07:34.272Z,28.27
2019-02-20T01:10:03.777Z,22.30
2019-02-20T01:12:33.206Z,22.80
2019-02-20T01:15:02.645Z,20.60
2019-02-20T01:17:32.164Z,24.23
2019-02-20T01:20:01.558Z,23.13
2019-02-20T01:22:31.074Z,24.80
2019-02-20T01:25:00.457Z,26.10
2019-02-20T01:27:29.850Z,24.43
2019-02-20T01:29:59.580Z,20.00
2019-02-20T01:32:28.969Z,24.77
2019-02-20T01:34:58.310Z,25.73
2019-02-20T01:37:27.628Z,25.37
2019-02-20T01:39:57.054Z,20.30
2019-02-20T01:42:26.351Z,21.37
2019-02-20T01:44:55.827Z,24.97
2019-02-20T01:47:26.349Z,19.03
2019-02-20T01:49:55.755Z,23.53
2019-02-20T01:52:25.357Z,25.87
2019-02-20T01:54:54.709Z,34.67
2019-02-20T01:57:24.446Z,20.00
2019-02-20T01:59:53.822Z,24.07
2019-02-20T02:02:23.183Z,25.33
2019-02-20T02:04:52.642Z,26.10
2019-02-20T02:07:22.043Z,26.70
2019-02-20T02:09:51.419Z,24.13
2019-02-20T02:12:20.839Z,26.90
2019-02-20T02:14:50.220Z,29.10
2019-02-20T02:17:38.941Z,24.47
2019-02-20T02:20:09.086Z,27.47
2019-02-20T02:22:38.457Z,25.73
2019-02-20T02:25:08.837Z,27.60
2019-02-20T02:27:38.197Z,27.17
2019-02-20T02:30:08.909Z,23.77
2019-02-20T02:32:38.299Z,31.23
2019-02-20T02:35:08.043Z,34.43
2019-02-20T02:37:37.533Z,27.03
2019-02-20T02:40:07.176Z,25.40
2019-02-20T02:42:36.614Z,27.20
2019-02-20T02:45:06.260Z,24.13
2019-02-20T02:47:35.691Z,24.27
2019-02-20T02:50:05.371Z,23.30
2019-02-20T02:52:34.751Z,26.10
2019-02-20T02:55:04.420Z,31.37
2019-02-20T02:57:33.789Z,31.40
2019-02-20T03:00:03.280Z,27.37
2019-02-20T03:02:32.692Z,29.13
2019-02-20T03:05:02.001Z,26.40
2019-02-20T03:07:31.438Z,25.17
2019-02-20T03:10:00.820Z,29.37
2019-02-20T03:12:30.629Z,27.77
2019-02-20T03:15:00.428Z,28.97
2019-02-20T03:17:29.794Z,26.80
2019-02-20T03:19:59.255Z,26.60
2019-02-20T03:22:28.588Z,25.53
2019-02-20T03:24:58.049Z,33.60
2019-02-20T03:27:27.468Z,27.17
2019-02-20T03:29:57.188Z,28.93
2019-02-20T03:32:26.669Z,25.77
2019-02-20T03:34:56.041Z,27.60
2019-02-20T03:37:25.367Z,26.77
2019-02-20T03:39:54.780Z,26.43
2019-02-20T03:42:24.155Z,21.77
2019-02-20T03:44:53.471Z,26.77
2019-02-20T03:47:22.917Z,28.47
2019-02-20T03:49:52.295Z,23.93
2019-02-20T03:52:21.627Z,29.10
2019-02-20T03:54:51.359Z,23.90
2019-02-20T03:57:20.823Z,26.93
2019-02-20T03:59:50.356Z,22.03
2019-02-20T04:02:19.707Z,26.73
2019-02-20T04:04:49.026Z,29.90
2019-02-20T04:07:18.419Z,30.87
2019-02-20T04:09:47.723Z,27.43
2019-02-20T04:12:17.149Z,24.30
2019-02-20T04:14:46.569Z,24.67
2019-02-20T04:17:16.085Z,29.47
2019-02-20T04:19:45.412Z,27.37
2019-02-20T04:22:14.972Z,27.47
2019-02-20T04:24:44.745Z,25.50
2019-02-20T04:27:14.274Z,21.60
2019-02-20T04:29:43.731Z,22.47
2019-02-20T04:32:13.113Z,25.37
2019-02-20T04:34:42.487Z,24.53
2019-02-20T04:37:11.886Z,21.43
2019-02-20T04:39:41.702Z,25.50
2019-02-20T04:42:11.083Z,25.97
2019-02-20T04:44:40.501Z,23.17
2019-02-20T04:47:09.877Z,20.37
2019-02-20T04:49:39.283Z,22.83
2019-02-20T04:52:08.680Z,20.47
2019-02-20T04:54:38.086Z,22.00
2019-02-20T04:57:07.708Z,19.90
2019-02-20T04:59:37.150Z,21.17
2019-02-20T05:02:06.562Z,19.93
2019-02-20T05:04:35.982Z,24.30
2019-02-20T05:07:05.720Z,18.73
2019-02-20T05:09:35.116Z,22.20
2019-02-20T05:12:04.565Z,25.23
2019-02-20T05:14:34.033Z,31.73
2019-02-20T05:17:03.428Z,27.27
2019-02-20T05:19:32.828Z,26.87
2019-02-20T05:22:02.284Z,26.90
2019-02-20T05:24:31.671Z,25.87
2019-02-20T05:27:01.062Z,28.07
2019-02-20T05:29:30.540Z,26.37
2019-02-20T05:31:59.933Z,26.07
2019-02-20T05:34:29.299Z,26.00
2019-02-20T05:36:58.724Z,24.73
2019-02-20T05:39:28.134Z,26.57
2019-02-20T05:41:57.559Z,27.00
2019-02-20T05:44:26.935Z,25.93
2019-02-20T05:46:56.374Z,23.93
2019-02-20T05:49:26.164Z,24.37
2019-02-20T05:51:55.909Z,28.93
2019-02-20T05:54:34.049Z,23.67
2019-02-20T05:56:56.506Z,28.43
2019-02-20T05:59:25.929Z,25.50
2019-02-20T06:01:55.343Z,29.47
2019-02-20T06:04:24.730Z,22.47
2019-02-20T06:06:54.121Z,27.23
2019-02-20T06:09:24.775Z,29.60
2019-02-20T06:11:54.248Z,27.13
2019-02-20T06:14:23.653Z,26.83
2019-02-20T06:16:53.065Z,26.40
2019-02-20T06:19:22.470Z,30.23
2019-02-20T06:21:51.899Z,26.07
2019-02-20T06:24:21.479Z,27.90
2019-02-20T06:26:50.913Z,30.33
2019-02-20T06:29:20.305Z,27.87
2019-02-20T06:31:49.743Z,24.73
2019-02-20T06:34:19.109Z,25.00
2019-02-20T06:37:07.835Z,31.47
2019-02-20T06:39:37.251Z,23.17
2019-02-20T06:42:06.648Z,26.03
2019-02-20T06:44:36.087Z,28.37
2019-02-20T06:47:05.488Z,27.00
2019-02-20T06:49:35.192Z,31.43
2019-02-20T06:52:05.307Z,28.60
2019-02-20T06:54:35.143Z,26.20
2019-02-20T06:57:04.552Z,30.73
2019-02-20T06:59:33.961Z,25.97
2019-02-20T07:02:03.371Z,29.33
2019-02-20T07:04:32.737Z,34.03
2019-02-20T07:07:17.705Z,26.27
2019-02-20T07:10:37.845Z,31.73
2019-02-20T07:13:31.903Z,30.57
2019-02-20T07:16:39.426Z,28.77
2019-02-20T07:19:42.105Z,28.63
2019-02-20T07:22:48.788Z,34.03
2019-02-20T07:25:28.809Z,29.60
2019-02-20T07:28:34.218Z,35.07
2019-02-20T07:31:04.007Z,26.13
2019-02-20T07:33:33.620Z,28.40
2019-02-20T07:36:03.005Z,30.20
2019-02-20T07:38:32.423Z,29.33
2019-02-20T07:41:01.745Z,29.93
2019-02-20T07:43:31.270Z,35.83
2019-02-20T07:46:00.961Z,33.00
2019-02-20T07:48:30.665Z,33.47
2019-02-20T07:51:00.007Z,37.07
2019-02-20T07:53:29.681Z,29.40
2019-02-20T07:55:59.033Z,33.90
2019-02-20T07:58:28.415Z,36.83
2019-02-20T08:00:57.885Z,35.67
2019-02-20T08:03:29.539Z,35.13
2019-02-20T08:05:58.776Z,34.20
2019-02-20T08:08:28.167Z,31.83
2019-02-20T08:10:57.517Z,31.87
2019-02-20T08:13:27.334Z,34.97
2019-02-20T08:15:56.767Z,29.83
2019-02-20T08:18:26.179Z,32.30
2019-02-20T08:20:55.878Z,33.53
2019-02-20T08:23:25.681Z,33.47
2019-02-20T08:25:55.102Z,36.97
2019-02-20T08:28:24.438Z,35.37
2019-02-20T08:30:53.833Z,32.97
2019-02-20T08:33:23.340Z,37.27
2019-02-20T08:35:52.694Z,29.43
2019-02-20T08:38:22.096Z,35.63
2019-02-20T08:40:51.406Z,33.77
2019-02-20T08:43:21.069Z,27.97
2019-02-20T08:45:50.435Z,38.13
2019-02-20T08:48:19.889Z,30.83
2019-02-20T08:50:49.326Z,38.40
2019-02-20T08:53:18.728Z,36.20
2019-02-20T08:55:48.526Z,35.70
2019-02-20T08:58:17.880Z,35.40
2019-02-20T09:00:47.224Z,35.67
2019-02-20T09:03:17.412Z,36.90
2019-02-20T09:05:47.559Z,36.70
2019-02-20T09:08:16.908Z,32.83
2019-02-20T09:10:46.226Z,30.73
2019-02-20T09:13:15.679Z,36.43
2019-02-20T09:15:45.102Z,38.10
2019-02-20T09:18:14.530Z,32.87
2019-02-20T09:20:43.881Z,33.13
2019-02-20T09:23:13.358Z,31.83
2019-02-20T09:25:42.700Z,28.47
2019-02-20T09:28:12.082Z,31.40
2019-02-20T09:30:41.401Z,38.53
2019-02-20T09:33:10.860Z,35.53
2019-02-20T09:35:40.164Z,35.97
2019-02-20T09:38:10.521Z,30.90
2019-02-20T09:40:39.987Z,29.87
2019-02-20T09:43:09.398Z,30.40
2019-02-20T09:45:42.237Z,25.63
2019-02-20T09:48:09.922Z,28.47
2019-02-20T09:50:39.356Z,28.10
2019-02-20T09:53:08.852Z,35.93
2019-02-20T09:55:38.276Z,32.73
2019-02-20T09:58:07.695Z,29.87
2019-02-20T10:00:37.112Z,28.90
2019-02-20T10:03:06.511Z,29.57
2019-02-20T10:05:35.949Z,35.33
2019-02-20T10:08:05.674Z,26.20
2019-02-20T10:10:35.104Z,28.90
2019-02-20T10:13:04.425Z,30.53
2019-02-20T10:15:33.828Z,26.13
2019-02-20T10:18:03.162Z,26.33
2019-02-20T10:20:32.533Z,31.63
2019-02-20T10:23:01.966Z,26.03
2019-02-20T10:25:31.310Z,28.70
2019-02-20T10:28:00.740Z,35.17
2019-02-20T10:30:30.148Z,29.60
2019-02-20T10:33:00.006Z,27.83
2019-02-20T10:35:29.410Z,25.80
2019-02-20T10:37:58.803Z,28.80
2019-02-20T10:40:28.150Z,24.77
2019-02-20T10:42:57.928Z,22.10
2019-02-20T10:45:27.375Z,21.60
2019-02-20T10:47:56.780Z,23.73
2019-02-20T10:50:26.118Z,24.70
2019-02-20T10:52:55.558Z,21.53
2019-02-20T10:55:25.288Z,18.73
2019-02-20T10:57:54.710Z,19.07
2019-02-20T11:00:26.516Z,19.47
2019-02-20T11:02:55.916Z,21.57
2019-02-20T11:05:25.289Z,17.10
2019-02-20T11:07:54.708Z,17.03
2019-02-20T11:10:24.215Z,22.20
2019-02-20T11:12:53.732Z,16.53
2019-02-20T11:15:23.200Z,18.87
2019-02-20T11:17:52.925Z,18.17
2019-02-20T11:20:22.588Z,18.17
2019-02-20T11:22:51.990Z,15.40
2019-02-20T11:25:21.317Z,19.13
2019-02-20T11:27:50.829Z,18.00
2019-02-20T11:30:20.788Z,16.30
2019-02-20T11:32:50.184Z,19.27
2019-02-20T11:35:19.587Z,16.23
2019-02-20T11:37:48.998Z,20.80
2019-02-20T11:40:18.422Z,18.73
2019-02-20T11:42:47.820Z,21.63
2019-02-20T11:45:17.159Z,17.40
2019-02-20T11:47:46.562Z,15.27
2019-02-20T11:50:16.172Z,16.40
2019-02-20T11:52:45.519Z,11.57
2019-02-20T11:55:16.114Z,16.57
2019-02-20T11:57:45.508Z,15.80
2019-02-20T12:00:14.944Z,15.70
2019-02-20T12:02:44.464Z,15.43
2019-02-20T12:05:13.923Z,15.73
2019-02-20T12:07:43.820Z,18.90
2019-02-20T12:10:14.889Z,14.27
2019-02-20T12:12:45.358Z,16.03
2019-02-20T12:15:14.786Z,12.83
2019-02-20T12:17:44.196Z,16.00
2019-02-20T12:20:13.574Z,16.43
2019-02-20T12:22:42.992Z,14.27
2019-02-20T12:25:12.359Z,17.47
2019-02-20T12:27:41.768Z,12.30
2019-02-20T12:30:11.453Z,11.10
2019-02-20T12:32:41.103Z,11.93
2019-02-20T12:35:11.032Z,15.70
2019-02-20T12:37:40.400Z,12.47
2019-02-20T12:40:10.042Z,11.47
2019-02-20T12:42:39.469Z,14.47
2019-02-20T12:45:08.882Z,9.60
2019-02-20T12:47:38.339Z,10.70
2019-02-20T12:50:08.028Z,7.77
2019-02-20T12:52:37.575Z,9.17
2019-02-20T12:55:07.935Z,11.30
2019-02-20T12:57:37.557Z,11.07
2019-02-20T13:00:07.932Z,11.03
2019-02-20T13:02:37.529Z,10.17
2019-02-20T13:05:08.076Z,7.03
2019-02-20T13:07:38.059Z,7.53
2019-02-20T13:10:08.118Z,8.37
2019-02-20T13:12:37.848Z,7.77
2019-02-20T13:15:07.630Z,9.13
2019-02-20T13:17:37.062Z,9.30
2019-02-20T13:20:06.851Z,8.50
2019-02-20T13:22:36.622Z,8.30
2019-02-20T13:25:07.392Z,9.60
2019-02-20T13:27:36.876Z,9.83
2019-02-20T13:30:07.008Z,6.97
2019-02-20T13:32:42.515Z,10.07
2019-02-20T13:35:12.448Z,7.20
2019-02-20T13:37:42.038Z,9.77
2019-02-20T13:40:12.202Z,5.90
2019-02-20T13:42:42.226Z,7.20
2019-02-20T13:45:12.084Z,9.13
2019-02-20T13:47:41.690Z,7.63
2019-02-20T13:50:11.939Z,9.77
2019-02-20T13:52:50.079Z,7.93
2019-02-20T13:55:22.636Z,5.97
2019-02-20T13:57:52.783Z,5.37
2019-02-20T14:00:22.702Z,8.27
2019-02-20T14:02:52.522Z,8.60
2019-02-20T14:05:22.459Z,10.60
2019-02-20T14:07:51.886Z,5.43
2019-02-20T14:10:21.310Z,8.87
2019-02-20T14:12:50.715Z,7.27
2019-02-20T14:15:20.218Z,9.20
2019-02-20T14:17:49.635Z,7.87
2019-02-20T14:20:19.064Z,7.43
2019-02-20T14:22:48.486Z,7.30
2019-02-20T14:25:17.996Z,8.23
2019-02-20T14:27:47.456Z,6.00
2019-02-20T14:30:16.831Z,6.13
2019-02-20T14:32:46.307Z,5.87
2019-02-20T14:35:15.847Z,6.73
2019-02-20T14:37:45.286Z,6.00
2019-02-20T14:40:14.681Z,5.30
2019-02-20T14:42:44.113Z,7.43
2019-02-20T14:45:13.951Z,7.50
2019-02-20T14:47:43.359Z,7.93
2019-02-20T14:50:13.007Z,9.47
2019-02-20T14:52:42.814Z,7.27
2019-02-20T14:55:12.453Z,5.47
2019-02-20T14:57:42.243Z,6.30
2019-02-20T15:00:12.726Z,11.50
2019-02-20T15:02:42.166Z,5.97
2019-02-20T15:05:12.110Z,10.67
2019-02-20T15:07:41.661Z,5.97
2019-02-20T15:10:11.245Z,13.00
2019-02-20T15:12:40.647Z,9.30
2019-02-20T15:15:10.916Z,8.50
2019-02-20T15:17:40.496Z,7.47
2019-02-20T15:20:11.319Z,5.93
2019-02-20T15:22:40.733Z,8.93
2019-02-20T15:25:10.468Z,8.47
2019-02-20T15:27:39.983Z,8.47
2019-02-20T15:30:12.435Z,8.73
2019-02-20T15:32:42.035Z,7.13
2019-02-20T15:35:12.113Z,7.33
2019-02-20T15:37:41.531Z,11.53
2019-02-20T15:40:11.159Z,9.03
2019-02-20T15:42:40.588Z,8.57
2019-02-20T15:45:10.325Z,8.70
2019-02-20T15:47:39.775Z,9.40
2019-02-20T15:50:11.285Z,10.83
2019-02-20T15:52:40.856Z,10.73
2019-02-20T15:55:11.537Z,10.17
2019-02-20T15:57:40.947Z,5.37
2019-02-20T16:00:12.137Z,8.53
2019-02-20T16:02:41.635Z,9.77
2019-02-20T16:05:11.053Z,7.37
2019-02-20T16:07:40.502Z,9.77
2019-02-20T16:10:10.239Z,8.47
2019-02-20T16:12:39.613Z,9.27
2019-02-20T16:15:09.591Z,9.20
2019-02-20T16:17:39.011Z,7.77
2019-02-20T16:20:10.123Z,7.83
2019-02-20T16:22:39.498Z,9.03
2019-02-20T16:25:11.468Z,9.60
2019-02-20T16:27:46.688Z,8.10
2019-02-20T16:30:13.008Z,10.73
2019-02-20T16:32:42.616Z,7.03
2019-02-20T16:35:12.614Z,11.97
2019-02-20T16:37:42.131Z,33.47
2019-02-20T16:40:12.669Z,25.27
2019-02-20T16:42:42.109Z,17.37
2019-02-20T16:45:22.413Z,11.47
2019-02-20T16:47:52.919Z,15.93
2019-02-20T16:50:22.522Z,11.80
2019-02-20T16:52:51.963Z,14.33
2019-02-20T16:55:22.769Z,11.23
2019-02-20T16:57:56.579Z,12.60
2019-02-20T17:00:23.650Z,9.10
2019-02-20T17:02:53.778Z,8.57
2019-02-20T17:05:23.205Z,9.23
2019-02-20T17:07:52.698Z,12.50
2019-02-20T17:10:22.155Z,10.57
2019-02-20T17:12:51.559Z,10.20
2019-02-20T17:15:21.031Z,12.90
2019-02-20T17:17:52.992Z,12.93
2019-02-20T17:20:22.341Z,10.13
2019-02-20T17:22:51.795Z,10.70
2019-02-20T17:25:21.794Z,13.10
2019-02-20T17:27:51.211Z,9.77
2019-02-20T17:30:20.617Z,10.80
2019-02-20T17:32:50.760Z,16.10
2019-02-20T17:35:20.147Z,13.00
2019-02-20T17:37:52.305Z,11.90
2019-02-20T17:40:21.789Z,15.53
2019-02-20T17:42:51.634Z,14.10
2019-02-20T17:45:21.023Z,12.10
2019-02-20T17:47:50.444Z,12.83
2019-02-20T17:50:19.858Z,16.93
2019-02-20T17:52:49.293Z,12.70
2019-02-20T17:55:18.689Z,8.13
2019-02-20T17:57:48.124Z,10.70
2019-02-20T18:00:19.249Z,9.20
2019-02-20T18:02:48.705Z,15.50
2019-02-20T18:05:18.125Z,13.50
2019-02-20T18:07:51.489Z,10.93
2019-02-20T18:10:19.055Z,16.03
2019-02-20T18:12:48.879Z,13.93
2019-02-20T18:15:18.521Z,10.90
2019-02-20T18:17:49.115Z,11.80
2019-02-20T18:20:18.701Z,11.17
2019-02-20T18:23:07.305Z,12.30
2019-02-20T18:25:36.763Z,13.27
2019-02-20T18:28:06.550Z,12.50
2019-02-20T18:30:36.023Z,13.00
2019-02-20T18:33:05.435Z,11.37
2019-02-20T18:35:35.318Z,13.17
2019-02-20T18:38:04.648Z,12.17
2019-02-20T18:40:34.760Z,12.23
2019-02-20T18:43:04.497Z,12.93
2019-02-20T18:45:34.016Z,20.37
2019-02-20T18:48:03.420Z,12.37
2019-02-20T18:50:32.791Z,9.43
2019-02-20T18:53:02.514Z,14.13
2019-02-20T18:55:31.872Z,13.50
2019-02-20T18:58:01.282Z,14.03
2019-02-20T19:00:30.682Z,12.63
2019-02-20T19:03:00.139Z,15.00
2019-02-20T19:05:29.632Z,11.43
2019-02-20T19:07:59.133Z,13.57
2019-02-20T19:10:35.000Z,12.67
2019-02-20T19:13:32.778Z,12.37
2019-02-20T19:16:44.999Z,10.83
2019-02-20T19:19:34.441Z,13.23
2019-02-20T19:22:22.201Z,13.10
2019-02-20T19:25:53.136Z,11.47
2019-02-20T19:28:44.260Z,13.37
2019-02-20T19:32:09.513Z,10.63
2019-02-20T19:35:13.316Z,15.07
2019-02-20T19:38:26.061Z,15.33
2019-02-20T19:41:17.120Z,16.20
2019-02-20T19:44:20.344Z,14.37
2019-02-20T19:47:50.416Z,11.73
2019-02-20T19:51:11.945Z,10.70
2019-02-20T19:53:58.208Z,13.87
2019-02-20T19:57:05.427Z,15.60
2019-02-20T20:00:15.487Z,13.00
2019-02-20T20:03:32.364Z,13.23
2019-02-20T20:06:49.102Z,13.50
2019-02-20T20:10:11.583Z,13.67
2019-02-20T20:13:06.713Z,13.23
2019-02-20T20:16:17.605Z,16.30
2019-02-20T20:19:25.517Z,14.07
2019-02-20T20:22:51.492Z,11.33
2019-02-20T20:26:04.610Z,15.07
2019-02-20T20:29:11.003Z,15.10
2019-02-20T20:31:46.330Z,15.57
2019-02-20T20:34:59.537Z,14.13
2019-02-20T20:37:57.400Z,13.87
2019-02-20T20:41:13.128Z,14.17
2019-02-20T20:44:03.485Z,11.50
2019-02-20T20:47:01.828Z,12.23
2019-02-20T20:50:12.257Z,12.47
2019-02-20T20:53:44.459Z,12.90
2019-02-20T20:56:28.044Z,15.00
2019-02-20T20:59:20.930Z,12.27
2019-02-20T21:02:21.014Z,12.87
2019-02-20T21:05:26.276Z,10.93
2019-02-20T21:08:18.936Z,15.13
2019-02-20T21:11:41.792Z,11.70
2019-02-20T21:14:38.988Z,16.97
2019-02-20T21:17:51.272Z,14.00
2019-02-20T21:21:07.775Z,16.03
2019-02-20T21:24:20.495Z,12.77
2019-02-20T21:27:27.230Z,12.97
2019-02-20T21:30:41.596Z,14.13
2019-02-20T21:33:52.022Z,12.63
2019-02-20T21:36:32.627Z,12.33
2019-02-20T21:40:01.454Z,10.67
2019-02-20T21:43:27.480Z,12.23
2019-02-20T21:46:11.020Z,14.07
2019-02-20T21:48:55.004Z,13.63
2019-02-20T21:51:56.483Z,15.37
2019-02-20T21:55:26.112Z,11.50
2019-02-20T21:58:57.772Z,10.17
2019-02-20T22:01:56.432Z,12.13
2019-02-20T22:04:50.609Z,16.30
2019-02-20T22:07:50.487Z,15.13
2019-02-20T22:10:49.222Z,13.83
2019-02-20T22:14:08.595Z,13.47
2019-02-20T22:17:14.991Z,13.60
2019-02-20T22:20:25.929Z,15.63
2019-02-20T22:23:27.766Z,11.10
2019-02-20T22:26:50.556Z,13.70
2019-02-20T22:29:55.466Z,11.83
2019-02-20T22:32:46.094Z,14.10
2019-02-20T22:35:59.943Z,10.37
2019-02-20T22:38:53.120Z,13.10
2019-02-20T22:41:59.281Z,12.60
2019-02-20T22:45:20.912Z,13.37
2019-02-20T22:48:23.576Z,12.07
2019-02-20T22:51:25.358Z,12.93
2019-02-20T22:54:21.237Z,11.50
2019-02-20T22:57:15.850Z,15.00
2019-02-20T23:00:34.133Z,10.47
2019-02-20T23:03:47.006Z,14.57
2019-02-20T23:06:59.548Z,12.87
2019-02-20T23:10:34.614Z,13.40
2019-02-20T23:13:38.222Z,13.17
2019-02-20T23:16:08.017Z,14.17
2019-02-20T23:18:37.430Z,15.30
2019-02-20T23:21:06.837Z,12.20
2019-02-20T23:23:36.184Z,10.07
2019-02-20T23:26:05.594Z,10.63
2019-02-20T23:28:35.007Z,12.17
2019-02-20T23:31:04.672Z,11.13
2019-02-20T23:33:34.083Z,10.93
2019-02-20T23:36:03.492Z,12.27
2019-02-20T23:38:32.822Z,13.37
2019-02-20T23:41:02.164Z,11.43
2019-02-20T23:43:31.500Z,14.10
2019-02-20T23:46:00.958Z,16.53
2019-02-20T23:48:30.381Z,13.50
2019-02-20T23:50:59.790Z,12.13
2019-02-20T23:53:29.167Z,11.00
2019-02-20T23:55:58.586Z,11.90
2019-02-20T23:58:27.944Z,13.40
